sensor_id;sensor_type;location;lat;lon;timestamp;P1;durP1;ratioP1;P2;durP2;ratioP2
11439;SDS011;5776;51.814;4.510;2023-07-29T00:02:08;3.70;;;1.40;;
11439;SDS011;5776;51.814;4.510;2023-07-29T00:04:34;3.15;;;1.15;;
11439;SDS011;5776;51.814;4.510;2023-07-29T00:07:00;8.25;;;1.55;;
11439;SDS011;5776;51.814;4.510;2023-07-29T00:09:26;3.38;;;1.25;;
11439;SDS011;5776;51.814;4.510;2023-07-29T00:11:52;4.88;;;1.55;;
11439;SDS011;5776;51.814;4.510;2023-07-29T00:14:18;1.77;;;0.98;;
11439;SDS011;5776;51.814;4.510;2023-07-29T00:16:44;2.28;;;1.30;;
11439;SDS011;5776;51.814;4.510;2023-07-29T00:19:10;2.22;;;1.20;;
11439;SDS011;5776;51.814;4.510;2023-07-29T00:21:35;2.40;;;1.20;;
11439;SDS011;5776;51.814;4.510;2023-07-29T00:24:02;3.65;;;1.45;;
11439;SDS011;5776;51.814;4.510;2023-07-29T00:26:28;2.22;;;1.20;;
11439;SDS011;5776;51.814;4.510;2023-07-29T00:28:56;1.77;;;0.98;;
11439;SDS011;5776;51.814;4.510;2023-07-29T00:31:22;1.58;;;0.82;;
11439;SDS011;5776;51.814;4.510;2023-07-29T00:33:48;2.30;;;0.60;;
11439;SDS011;5776;51.814;4.510;2023-07-29T00:36:14;0.93;;;0.60;;
11439;SDS011;5776;51.814;4.510;2023-07-29T00:38:40;2.47;;;1.02;;
11439;SDS011;5776;51.814;4.510;2023-07-29T00:41:06;1.65;;;1.00;;
11439;SDS011;5776;51.814;4.510;2023-07-29T00:43:32;3.10;;;1.35;;
11439;SDS011;5776;51.814;4.510;2023-07-29T00:45:59;3.38;;;1.08;;
11439;SDS011;5776;51.814;4.510;2023-07-29T00:48:27;2.80;;;1.10;;
11439;SDS011;5776;51.814;4.510;2023-07-29T00:50:53;2.78;;;1.25;;
11439;SDS011;5776;51.814;4.510;2023-07-29T00:53:19;1.92;;;1.17;;
11439;SDS011;5776;51.814;4.510;2023-07-29T00:55:45;4.55;;;1.50;;
11439;SDS011;5776;51.814;4.510;2023-07-29T00:58:11;4.13;;;1.67;;
11439;SDS011;5776;51.814;4.510;2023-07-29T01:00:37;3.05;;;1.40;;
11439;SDS011;5776;51.814;4.510;2023-07-29T01:03:05;3.13;;;1.27;;
11439;SDS011;5776;51.814;4.510;2023-07-29T01:05:40;3.55;;;1.40;;
11439;SDS011;5776;51.814;4.510;2023-07-29T01:11:33;3.40;;;1.83;;
11439;SDS011;5776;51.814;4.510;2023-07-29T01:14:11;2.28;;;1.17;;
11439;SDS011;5776;51.814;4.510;2023-07-29T01:17:00;2.80;;;1.27;;
11439;SDS011;5776;51.814;4.510;2023-07-29T01:22:37;3.83;;;1.10;;
11439;SDS011;5776;51.814;4.510;2023-07-29T01:25:05;3.13;;;1.23;;
11439;SDS011;5776;51.814;4.510;2023-07-29T01:27:31;2.20;;;1.20;;
11439;SDS011;5776;51.814;4.510;2023-07-29T01:29:59;2.38;;;0.90;;
11439;SDS011;5776;51.814;4.510;2023-07-29T01:35:27;3.40;;;0.98;;
11439;SDS011;5776;51.814;4.510;2023-07-29T01:38:30;1.52;;;1.00;;
11439;SDS011;5776;51.814;4.510;2023-07-29T01:41:04;2.03;;;1.27;;
11439;SDS011;5776;51.814;4.510;2023-07-29T01:43:33;2.33;;;1.20;;
11439;SDS011;5776;51.814;4.510;2023-07-29T01:46:02;1.80;;;1.20;;
11439;SDS011;5776;51.814;4.510;2023-07-29T01:48:28;2.67;;;1.05;;
11439;SDS011;5776;51.814;4.510;2023-07-29T01:50:56;2.40;;;1.10;;
11439;SDS011;5776;51.814;4.510;2023-07-29T01:53:21;1.27;;;0.90;;
11439;SDS011;5776;51.814;4.510;2023-07-29T01:55:47;2.42;;;1.02;;
11439;SDS011;5776;51.814;4.510;2023-07-29T01:58:13;2.22;;;1.05;;
11439;SDS011;5776;51.814;4.510;2023-07-29T02:00:39;3.45;;;1.40;;
11439;SDS011;5776;51.814;4.510;2023-07-29T02:03:05;2.40;;;1.17;;
11439;SDS011;5776;51.814;4.510;2023-07-29T02:05:31;2.28;;;1.27;;
11439;SDS011;5776;51.814;4.510;2023-07-29T02:07:57;4.25;;;1.13;;
11439;SDS011;5776;51.814;4.510;2023-07-29T02:10:23;2.45;;;1.23;;
11439;SDS011;5776;51.814;4.510;2023-07-29T02:12:49;2.13;;;1.27;;
11439;SDS011;5776;51.814;4.510;2023-07-29T02:15:15;3.17;;;1.42;;
11439;SDS011;5776;51.814;4.510;2023-07-29T02:17:41;3.00;;;1.27;;
11439;SDS011;5776;51.814;4.510;2023-07-29T02:20:08;1.35;;;1.10;;
11439;SDS011;5776;51.814;4.510;2023-07-29T02:22:34;5.30;;;1.50;;
11439;SDS011;5776;51.814;4.510;2023-07-29T02:24:59;3.50;;;1.45;;
11439;SDS011;5776;51.814;4.510;2023-07-29T02:27:26;2.03;;;1.00;;
11439;SDS011;5776;51.814;4.510;2023-07-29T02:29:54;2.55;;;1.17;;
11439;SDS011;5776;51.814;4.510;2023-07-29T02:32:20;2.33;;;1.23;;
11439;SDS011;5776;51.814;4.510;2023-07-29T02:34:46;3.00;;;1.08;;
11439;SDS011;5776;51.814;4.510;2023-07-29T02:37:12;2.65;;;1.10;;
11439;SDS011;5776;51.814;4.510;2023-07-29T02:39:38;2.42;;;1.08;;
11439;SDS011;5776;51.814;4.510;2023-07-29T02:42:04;2.08;;;1.15;;
11439;SDS011;5776;51.814;4.510;2023-07-29T02:44:30;2.20;;;1.08;;
11439;SDS011;5776;51.814;4.510;2023-07-29T02:46:57;1.27;;;0.98;;
11439;SDS011;5776;51.814;4.510;2023-07-29T02:49:23;1.88;;;1.42;;
11439;SDS011;5776;51.814;4.510;2023-07-29T02:51:49;3.05;;;1.13;;
11439;SDS011;5776;51.814;4.510;2023-07-29T02:54:15;3.45;;;1.20;;
11439;SDS011;5776;51.814;4.510;2023-07-29T02:56:41;1.77;;;1.15;;
11439;SDS011;5776;51.814;4.510;2023-07-29T02:59:07;3.35;;;1.50;;
11439;SDS011;5776;51.814;4.510;2023-07-29T03:01:33;2.78;;;1.40;;
11439;SDS011;5776;51.814;4.510;2023-07-29T03:03:59;2.65;;;1.40;;
11439;SDS011;5776;51.814;4.510;2023-07-29T03:06:25;3.00;;;1.48;;
11439;SDS011;5776;51.814;4.510;2023-07-29T03:08:51;5.25;;;1.35;;
11439;SDS011;5776;51.814;4.510;2023-07-29T03:11:17;2.22;;;1.30;;
11439;SDS011;5776;51.814;4.510;2023-07-29T03:13:43;2.90;;;1.27;;
11439;SDS011;5776;51.814;4.510;2023-07-29T03:16:10;2.58;;;1.40;;
11439;SDS011;5776;51.814;4.510;2023-07-29T03:18:41;2.33;;;1.40;;
11439;SDS011;5776;51.814;4.510;2023-07-29T03:21:07;1.67;;;1.17;;
11439;SDS011;5776;51.814;4.510;2023-07-29T03:23:33;1.77;;;1.20;;
11439;SDS011;5776;51.814;4.510;2023-07-29T03:26:00;4.72;;;1.60;;
11439;SDS011;5776;51.814;4.510;2023-07-29T03:28:33;3.13;;;1.58;;
11439;SDS011;5776;51.814;4.510;2023-07-29T03:30:59;2.35;;;1.60;;
11439;SDS011;5776;51.814;4.510;2023-07-29T03:33:25;3.72;;;1.67;;
11439;SDS011;5776;51.814;4.510;2023-07-29T03:35:52;3.42;;;1.67;;
11439;SDS011;5776;51.814;4.510;2023-07-29T03:38:19;3.63;;;1.52;;
11439;SDS011;5776;51.814;4.510;2023-07-29T03:40:45;7.53;;;2.00;;
11439;SDS011;5776;51.814;4.510;2023-07-29T03:43:10;3.75;;;1.80;;
11439;SDS011;5776;51.814;4.510;2023-07-29T03:45:36;2.80;;;1.73;;
11439;SDS011;5776;51.814;4.510;2023-07-29T03:48:03;4.10;;;1.70;;
11439;SDS011;5776;51.814;4.510;2023-07-29T03:50:30;4.65;;;2.05;;
11439;SDS011;5776;51.814;4.510;2023-07-29T03:52:56;2.72;;;1.48;;
11439;SDS011;5776;51.814;4.510;2023-07-29T03:55:22;3.75;;;1.65;;
11439;SDS011;5776;51.814;4.510;2023-07-29T03:57:49;4.03;;;1.77;;
11439;SDS011;5776;51.814;4.510;2023-07-29T04:00:15;2.88;;;2.10;;
11439;SDS011;5776;51.814;4.510;2023-07-29T04:02:41;4.60;;;2.05;;
11439;SDS011;5776;51.814;4.510;2023-07-29T04:05:07;4.18;;;1.85;;
11439;SDS011;5776;51.814;4.510;2023-07-29T04:07:35;5.50;;;1.95;;
11439;SDS011;5776;51.814;4.510;2023-07-29T04:10:01;4.32;;;1.98;;
11439;SDS011;5776;51.814;4.510;2023-07-29T04:12:28;2.75;;;1.67;;
11439;SDS011;5776;51.814;4.510;2023-07-29T04:14:54;3.47;;;2.13;;
11439;SDS011;5776;51.814;4.510;2023-07-29T04:17:20;2.80;;;1.80;;
11439;SDS011;5776;51.814;4.510;2023-07-29T04:19:46;4.40;;;2.05;;
11439;SDS011;5776;51.814;4.510;2023-07-29T04:22:12;4.80;;;2.10;;
11439;SDS011;5776;51.814;4.510;2023-07-29T04:24:38;4.00;;;2.30;;
11439;SDS011;5776;51.814;4.510;2023-07-29T04:27:04;4.53;;;2.17;;
11439;SDS011;5776;51.814;4.510;2023-07-29T04:29:31;4.22;;;2.47;;
11439;SDS011;5776;51.814;4.510;2023-07-29T04:31:58;3.95;;;2.30;;
11439;SDS011;5776;51.814;4.510;2023-07-29T04:34:24;3.47;;;2.13;;
11439;SDS011;5776;51.814;4.510;2023-07-29T04:36:50;3.75;;;2.40;;
11439;SDS011;5776;51.814;4.510;2023-07-29T04:39:16;5.35;;;2.50;;
11439;SDS011;5776;51.814;4.510;2023-07-29T04:41:43;3.85;;;2.13;;
11439;SDS011;5776;51.814;4.510;2023-07-29T04:44:08;6.38;;;2.35;;
11439;SDS011;5776;51.814;4.510;2023-07-29T04:46:35;4.03;;;2.55;;
11439;SDS011;5776;51.814;4.510;2023-07-29T04:49:01;4.90;;;2.35;;
11439;SDS011;5776;51.814;4.510;2023-07-29T04:51:28;6.57;;;2.72;;
11439;SDS011;5776;51.814;4.510;2023-07-29T04:53:54;5.65;;;2.42;;
11439;SDS011;5776;51.814;4.510;2023-07-29T04:56:20;6.22;;;2.47;;
11439;SDS011;5776;51.814;4.510;2023-07-29T04:58:46;4.38;;;2.80;;
11439;SDS011;5776;51.814;4.510;2023-07-29T05:01:12;6.20;;;2.85;;
11439;SDS011;5776;51.814;4.510;2023-07-29T05:03:38;3.63;;;2.20;;
11439;SDS011;5776;51.814;4.510;2023-07-29T05:06:04;4.20;;;2.65;;
11439;SDS011;5776;51.814;4.510;2023-07-29T05:08:30;5.00;;;2.40;;
11439;SDS011;5776;51.814;4.510;2023-07-29T05:10:56;5.90;;;2.30;;
11439;SDS011;5776;51.814;4.510;2023-07-29T05:13:22;5.13;;;2.47;;
11439;SDS011;5776;51.814;4.510;2023-07-29T05:15:49;7.32;;;2.40;;
11439;SDS011;5776;51.814;4.510;2023-07-29T05:18:15;5.45;;;2.13;;
11439;SDS011;5776;51.814;4.510;2023-07-29T05:20:42;4.55;;;2.28;;
11439;SDS011;5776;51.814;4.510;2023-07-29T05:23:08;7.30;;;3.03;;
11439;SDS011;5776;51.814;4.510;2023-07-29T05:25:34;4.95;;;2.40;;
11439;SDS011;5776;51.814;4.510;2023-07-29T05:28:03;4.03;;;2.22;;
11439;SDS011;5776;51.814;4.510;2023-07-29T05:30:29;4.05;;;2.40;;
11439;SDS011;5776;51.814;4.510;2023-07-29T05:32:57;3.92;;;2.47;;
11439;SDS011;5776;51.814;4.510;2023-07-29T05:35:23;3.60;;;2.20;;
11439;SDS011;5776;51.814;4.510;2023-07-29T05:37:49;6.47;;;2.13;;
11439;SDS011;5776;51.814;4.510;2023-07-29T05:40:15;4.35;;;2.50;;
11439;SDS011;5776;51.814;4.510;2023-07-29T05:42:41;4.15;;;2.22;;
11439;SDS011;5776;51.814;4.510;2023-07-29T05:45:07;5.13;;;2.10;;
11439;SDS011;5776;51.814;4.510;2023-07-29T05:47:33;4.47;;;2.45;;
11439;SDS011;5776;51.814;4.510;2023-07-29T05:49:59;4.57;;;2.63;;
11439;SDS011;5776;51.814;4.510;2023-07-29T05:52:30;5.45;;;2.75;;
11439;SDS011;5776;51.814;4.510;2023-07-29T05:54:58;3.65;;;2.42;;
11439;SDS011;5776;51.814;4.510;2023-07-29T05:57:24;5.55;;;2.78;;
11439;SDS011;5776;51.814;4.510;2023-07-29T05:59:50;4.05;;;2.50;;
11439;SDS011;5776;51.814;4.510;2023-07-29T06:02:16;4.10;;;2.55;;
11439;SDS011;5776;51.814;4.510;2023-07-29T06:04:42;6.30;;;2.65;;
11439;SDS011;5776;51.814;4.510;2023-07-29T06:07:08;4.57;;;2.13;;
11439;SDS011;5776;51.814;4.510;2023-07-29T06:09:34;4.18;;;2.50;;
11439;SDS011;5776;51.814;4.510;2023-07-29T06:12:00;3.97;;;2.55;;
11439;SDS011;5776;51.814;4.510;2023-07-29T06:14:28;6.03;;;2.53;;
11439;SDS011;5776;51.814;4.510;2023-07-29T06:16:54;4.82;;;2.55;;
11439;SDS011;5776;51.814;4.510;2023-07-29T06:19:20;5.00;;;2.05;;
11439;SDS011;5776;51.814;4.510;2023-07-29T06:21:48;4.70;;;2.22;;
11439;SDS011;5776;51.814;4.510;2023-07-29T06:24:13;2.30;;;1.60;;
11439;SDS011;5776;51.814;4.510;2023-07-29T06:26:39;3.20;;;1.85;;
11439;SDS011;5776;51.814;4.510;2023-07-29T06:29:05;4.10;;;1.80;;
11439;SDS011;5776;51.814;4.510;2023-07-29T06:31:31;3.08;;;2.05;;
11439;SDS011;5776;51.814;4.510;2023-07-29T06:33:58;4.95;;;2.15;;
11439;SDS011;5776;51.814;4.510;2023-07-29T06:36:24;2.92;;;1.85;;
11439;SDS011;5776;51.814;4.510;2023-07-29T06:38:50;6.07;;;2.20;;
11439;SDS011;5776;51.814;4.510;2023-07-29T06:41:16;5.45;;;2.00;;
11439;SDS011;5776;51.814;4.510;2023-07-29T06:43:42;3.17;;;1.77;;
11439;SDS011;5776;51.814;4.510;2023-07-29T06:46:07;2.90;;;1.95;;
11439;SDS011;5776;51.814;4.510;2023-07-29T06:48:35;4.10;;;1.92;;
11439;SDS011;5776;51.814;4.510;2023-07-29T06:51:02;6.28;;;2.08;;
11439;SDS011;5776;51.814;4.510;2023-07-29T06:53:29;4.90;;;2.10;;
11439;SDS011;5776;51.814;4.510;2023-07-29T06:55:55;3.38;;;1.92;;
11439;SDS011;5776;51.814;4.510;2023-07-29T06:58:21;3.42;;;2.00;;
11439;SDS011;5776;51.814;4.510;2023-07-29T07:00:47;4.88;;;2.20;;
11439;SDS011;5776;51.814;4.510;2023-07-29T07:03:13;4.78;;;2.10;;
11439;SDS011;5776;51.814;4.510;2023-07-29T07:05:39;5.82;;;2.30;;
11439;SDS011;5776;51.814;4.510;2023-07-29T07:08:04;6.55;;;2.63;;
11439;SDS011;5776;51.814;4.510;2023-07-29T07:10:30;7.50;;;2.40;;
11439;SDS011;5776;51.814;4.510;2023-07-29T07:12:56;3.20;;;2.25;;
11439;SDS011;5776;51.814;4.510;2023-07-29T07:15:21;3.28;;;1.92;;
11439;SDS011;5776;51.814;4.510;2023-07-29T07:17:47;5.78;;;2.65;;
11439;SDS011;5776;51.814;4.510;2023-07-29T07:20:13;4.05;;;2.45;;
11439;SDS011;5776;51.814;4.510;2023-07-29T07:22:39;4.72;;;2.97;;
11439;SDS011;5776;51.814;4.510;2023-07-29T07:25:05;3.10;;;2.50;;
11439;SDS011;5776;51.814;4.510;2023-07-29T07:27:32;3.47;;;2.75;;
11439;SDS011;5776;51.814;4.510;2023-07-29T07:29:57;4.35;;;2.40;;
11439;SDS011;5776;51.814;4.510;2023-07-29T07:32:23;6.60;;;2.40;;
11439;SDS011;5776;51.814;4.510;2023-07-29T07:34:49;4.68;;;2.40;;
11439;SDS011;5776;51.814;4.510;2023-07-29T07:37:15;5.30;;;2.03;;
11439;SDS011;5776;51.814;4.510;2023-07-29T07:39:41;3.50;;;2.08;;
11439;SDS011;5776;51.814;4.510;2023-07-29T07:42:07;5.45;;;2.25;;
11439;SDS011;5776;51.814;4.510;2023-07-29T07:44:33;3.25;;;1.92;;
11439;SDS011;5776;51.814;4.510;2023-07-29T07:46:59;3.65;;;2.58;;
11439;SDS011;5776;51.814;4.510;2023-07-29T07:49:25;5.97;;;2.50;;
11439;SDS011;5776;51.814;4.510;2023-07-29T07:51:51;7.05;;;2.55;;
11439;SDS011;5776;51.814;4.510;2023-07-29T07:54:17;4.00;;;2.28;;
11439;SDS011;5776;51.814;4.510;2023-07-29T07:56:43;3.30;;;2.60;;
11439;SDS011;5776;51.814;4.510;2023-07-29T07:59:09;5.05;;;2.67;;
11439;SDS011;5776;51.814;4.510;2023-07-29T08:01:35;3.13;;;2.50;;
11439;SDS011;5776;51.814;4.510;2023-07-29T08:04:04;3.67;;;2.13;;
11439;SDS011;5776;51.814;4.510;2023-07-29T08:06:30;3.58;;;2.22;;
11439;SDS011;5776;51.814;4.510;2023-07-29T08:08:56;4.55;;;2.42;;
11439;SDS011;5776;51.814;4.510;2023-07-29T08:11:22;3.88;;;2.53;;
11439;SDS011;5776;51.814;4.510;2023-07-29T08:13:48;6.13;;;2.45;;
11439;SDS011;5776;51.814;4.510;2023-07-29T08:16:14;6.25;;;2.63;;
11439;SDS011;5776;51.814;4.510;2023-07-29T08:18:40;3.95;;;2.78;;
11439;SDS011;5776;51.814;4.510;2023-07-29T08:21:05;3.97;;;2.35;;
11439;SDS011;5776;51.814;4.510;2023-07-29T08:23:33;4.18;;;2.58;;
11439;SDS011;5776;51.814;4.510;2023-07-29T08:26:00;4.25;;;2.90;;
11439;SDS011;5776;51.814;4.510;2023-07-29T08:30:56;2.78;;;2.28;;
11439;SDS011;5776;51.814;4.510;2023-07-29T08:33:22;3.78;;;2.72;;
11439;SDS011;5776;51.814;4.510;2023-07-29T08:35:50;3.53;;;2.15;;
11439;SDS011;5776;51.814;4.510;2023-07-29T08:38:16;4.65;;;2.58;;
11439;SDS011;5776;51.814;4.510;2023-07-29T08:40:45;4.82;;;1.98;;
11439;SDS011;5776;51.814;4.510;2023-07-29T08:43:16;3.08;;;1.80;;
11439;SDS011;5776;51.814;4.510;2023-07-29T08:45:46;5.13;;;1.85;;
11439;SDS011;5776;51.814;4.510;2023-07-29T08:48:11;2.65;;;2.10;;
11439;SDS011;5776;51.814;4.510;2023-07-29T08:50:41;3.67;;;1.90;;
11439;SDS011;5776;51.814;4.510;2023-07-29T08:53:09;3.47;;;1.80;;
11439;SDS011;5776;51.814;4.510;2023-07-29T08:55:35;3.40;;;1.67;;
11439;SDS011;5776;51.814;4.510;2023-07-29T08:58:02;5.85;;;2.30;;
11439;SDS011;5776;51.814;4.510;2023-07-29T09:00:28;3.28;;;1.90;;
11439;SDS011;5776;51.814;4.510;2023-07-29T09:02:55;1.45;;;1.20;;
11439;SDS011;5776;51.814;4.510;2023-07-29T09:05:21;2.22;;;1.65;;
11439;SDS011;5776;51.814;4.510;2023-07-29T09:07:47;4.30;;;1.88;;
11439;SDS011;5776;51.814;4.510;2023-07-29T09:10:14;2.30;;;1.48;;
11439;SDS011;5776;51.814;4.510;2023-07-29T09:12:41;3.08;;;2.00;;
11439;SDS011;5776;51.814;4.510;2023-07-29T09:15:08;2.67;;;1.45;;
11439;SDS011;5776;51.814;4.510;2023-07-29T09:17:34;2.88;;;1.40;;
11439;SDS011;5776;51.814;4.510;2023-07-29T09:20:00;3.17;;;1.50;;
11439;SDS011;5776;51.814;4.510;2023-07-29T09:22:26;2.83;;;1.27;;
11439;SDS011;5776;51.814;4.510;2023-07-29T09:24:53;2.67;;;1.67;;
11439;SDS011;5776;51.814;4.510;2023-07-29T09:27:25;2.92;;;1.30;;
11439;SDS011;5776;51.814;4.510;2023-07-29T09:29:53;2.90;;;1.48;;
11439;SDS011;5776;51.814;4.510;2023-07-29T09:32:19;1.75;;;0.90;;
11439;SDS011;5776;51.814;4.510;2023-07-29T09:34:46;1.73;;;1.30;;
11439;SDS011;5776;51.814;4.510;2023-07-29T09:37:17;1.92;;;1.10;;
11439;SDS011;5776;51.814;4.510;2023-07-29T09:39:51;1.67;;;0.90;;
11439;SDS011;5776;51.814;4.510;2023-07-29T09:42:17;2.35;;;1.00;;
11439;SDS011;5776;51.814;4.510;2023-07-29T09:44:45;2.08;;;0.68;;
11439;SDS011;5776;51.814;4.510;2023-07-29T09:47:22;1.98;;;0.80;;
11439;SDS011;5776;51.814;4.510;2023-07-29T09:49:50;2.70;;;0.90;;
11439;SDS011;5776;51.814;4.510;2023-07-29T09:52:21;2.45;;;0.90;;
11439;SDS011;5776;51.814;4.510;2023-07-29T09:54:48;3.55;;;0.80;;
11439;SDS011;5776;51.814;4.510;2023-07-29T09:57:16;2.30;;;1.00;;
11439;SDS011;5776;51.814;4.510;2023-07-29T09:59:54;4.65;;;1.00;;
11439;SDS011;5776;51.814;4.510;2023-07-29T10:02:20;2.22;;;1.08;;
11439;SDS011;5776;51.814;4.510;2023-07-29T10:04:47;3.45;;;1.60;;
11439;SDS011;5776;51.814;4.510;2023-07-29T10:07:15;2.60;;;0.80;;
11439;SDS011;5776;51.814;4.510;2023-07-29T10:09:41;3.28;;;1.40;;
11439;SDS011;5776;51.814;4.510;2023-07-29T10:12:09;2.10;;;1.40;;
11439;SDS011;5776;51.814;4.510;2023-07-29T10:14:35;1.23;;;0.80;;
11439;SDS011;5776;51.814;4.510;2023-07-29T10:17:02;4.45;;;1.70;;
11439;SDS011;5776;51.814;4.510;2023-07-29T10:19:31;2.60;;;1.50;;
11439;SDS011;5776;51.814;4.510;2023-07-29T10:21:58;2.88;;;1.42;;
11439;SDS011;5776;51.814;4.510;2023-07-29T10:24:29;1.98;;;1.45;;
11439;SDS011;5776;51.814;4.510;2023-07-29T10:26:57;3.78;;;1.70;;
11439;SDS011;5776;51.814;4.510;2023-07-29T10:29:24;5.30;;;1.65;;
11439;SDS011;5776;51.814;4.510;2023-07-29T10:32:02;5.05;;;1.92;;
11439;SDS011;5776;51.814;4.510;2023-07-29T10:34:30;5.28;;;1.52;;
11439;SDS011;5776;51.814;4.510;2023-07-29T10:36:58;3.70;;;1.50;;
11439;SDS011;5776;51.814;4.510;2023-07-29T10:39:25;5.00;;;1.80;;
11439;SDS011;5776;51.814;4.510;2023-07-29T10:47:11;2.00;;;1.02;;
11439;SDS011;5776;51.814;4.510;2023-07-29T10:49:39;4.20;;;1.65;;
11439;SDS011;5776;51.814;4.510;2023-07-29T10:52:06;1.90;;;1.15;;
11439;SDS011;5776;51.814;4.510;2023-07-29T10:54:42;3.30;;;2.08;;
11439;SDS011;5776;51.814;4.510;2023-07-29T10:57:12;8.48;;;2.13;;
11439;SDS011;5776;51.814;4.510;2023-07-29T10:59:39;3.63;;;2.03;;
11439;SDS011;5776;51.814;4.510;2023-07-29T11:02:12;4.53;;;2.00;;
11439;SDS011;5776;51.814;4.510;2023-07-29T11:04:52;3.63;;;2.22;;
11439;SDS011;5776;51.814;4.510;2023-07-29T11:07:18;2.60;;;1.58;;
11439;SDS011;5776;51.814;4.510;2023-07-29T11:17:43;1.63;;;1.35;;
11439;SDS011;5776;51.814;4.510;2023-07-29T11:20:16;2.22;;;1.50;;
11439;SDS011;5776;51.814;4.510;2023-07-29T11:22:44;3.63;;;1.60;;
11439;SDS011;5776;51.814;4.510;2023-07-29T11:25:10;2.75;;;1.40;;
11439;SDS011;5776;51.814;4.510;2023-07-29T11:27:38;3.60;;;1.60;;
11439;SDS011;5776;51.814;4.510;2023-07-29T11:30:05;2.60;;;1.50;;
11439;SDS011;5776;51.814;4.510;2023-07-29T11:32:34;2.88;;;1.40;;
11439;SDS011;5776;51.814;4.510;2023-07-29T11:35:02;2.92;;;1.65;;
11439;SDS011;5776;51.814;4.510;2023-07-29T11:37:32;2.17;;;1.55;;
11439;SDS011;5776;51.814;4.510;2023-07-29T11:39:59;2.53;;;1.65;;
11439;SDS011;5776;51.814;4.510;2023-07-29T11:42:26;5.82;;;1.55;;
11439;SDS011;5776;51.814;4.510;2023-07-29T11:44:56;4.05;;;1.30;;
11439;SDS011;5776;51.814;4.510;2023-07-29T11:47:22;2.72;;;1.48;;
11439;SDS011;5776;51.814;4.510;2023-07-29T11:49:48;2.53;;;1.23;;
11439;SDS011;5776;51.814;4.510;2023-07-29T11:52:14;2.45;;;1.60;;
11439;SDS011;5776;51.814;4.510;2023-07-29T11:54:44;2.70;;;1.70;;
11439;SDS011;5776;51.814;4.510;2023-07-29T11:57:11;3.03;;;1.60;;
11439;SDS011;5776;51.814;4.510;2023-07-29T11:59:38;4.68;;;2.00;;
11439;SDS011;5776;51.814;4.510;2023-07-29T12:02:11;2.83;;;1.90;;
11439;SDS011;5776;51.814;4.510;2023-07-29T12:04:40;2.58;;;2.00;;
11439;SDS011;5776;51.814;4.510;2023-07-29T12:07:07;2.13;;;1.92;;
11439;SDS011;5776;51.814;4.510;2023-07-29T12:09:33;3.45;;;1.70;;
11439;SDS011;5776;51.814;4.510;2023-07-29T12:12:01;2.75;;;1.92;;
11439;SDS011;5776;51.814;4.510;2023-07-29T12:14:31;2.33;;;1.85;;
11439;SDS011;5776;51.814;4.510;2023-07-29T12:16:59;2.65;;;2.00;;
11439;SDS011;5776;51.814;4.510;2023-07-29T12:19:30;2.28;;;1.73;;
11439;SDS011;5776;51.814;4.510;2023-07-29T12:21:58;2.85;;;1.98;;
11439;SDS011;5776;51.814;4.510;2023-07-29T12:24:24;2.25;;;1.83;;
11439;SDS011;5776;51.814;4.510;2023-07-29T12:26:50;3.35;;;1.88;;
11439;SDS011;5776;51.814;4.510;2023-07-29T12:29:17;2.45;;;2.10;;
11439;SDS011;5776;51.814;4.510;2023-07-29T12:31:47;2.83;;;1.77;;
11439;SDS011;5776;51.814;4.510;2023-07-29T12:34:19;5.45;;;1.67;;
11439;SDS011;5776;51.814;4.510;2023-07-29T12:36:47;3.88;;;1.40;;
11439;SDS011;5776;51.814;4.510;2023-07-29T12:41:55;4.60;;;2.00;;
11439;SDS011;5776;51.814;4.510;2023-07-29T12:44:22;1.95;;;1.33;;
11439;SDS011;5776;51.814;4.510;2023-07-29T12:46:48;2.72;;;1.67;;
11439;SDS011;5776;51.814;4.510;2023-07-29T12:49:14;3.45;;;1.80;;
11439;SDS011;5776;51.814;4.510;2023-07-29T12:51:40;2.45;;;1.30;;
11439;SDS011;5776;51.814;4.510;2023-07-29T12:54:06;3.42;;;1.50;;
11439;SDS011;5776;51.814;4.510;2023-07-29T12:56:33;3.97;;;1.45;;
11439;SDS011;5776;51.814;4.510;2023-07-29T12:58:59;2.65;;;1.75;;
11439;SDS011;5776;51.814;4.510;2023-07-29T13:01:26;4.07;;;1.85;;
11439;SDS011;5776;51.814;4.510;2023-07-29T13:03:53;3.95;;;2.38;;
11439;SDS011;5776;51.814;4.510;2023-07-29T13:06:19;4.40;;;2.10;;
11439;SDS011;5776;51.814;4.510;2023-07-29T13:08:45;4.07;;;1.73;;
11439;SDS011;5776;51.814;4.510;2023-07-29T13:11:11;2.28;;;1.45;;
11439;SDS011;5776;51.814;4.510;2023-07-29T13:13:37;2.78;;;1.42;;
11439;SDS011;5776;51.814;4.510;2023-07-29T13:16:03;3.40;;;1.65;;
11439;SDS011;5776;51.814;4.510;2023-07-29T13:18:30;2.55;;;1.50;;
11439;SDS011;5776;51.814;4.510;2023-07-29T13:20:56;2.90;;;1.33;;
11439;SDS011;5776;51.814;4.510;2023-07-29T13:23:23;2.35;;;1.40;;
11439;SDS011;5776;51.814;4.510;2023-07-29T13:25:49;3.22;;;1.52;;
11439;SDS011;5776;51.814;4.510;2023-07-29T13:28:15;1.77;;;0.93;;
11439;SDS011;5776;51.814;4.510;2023-07-29T13:30:41;2.78;;;1.10;;
11439;SDS011;5776;51.814;4.510;2023-07-29T13:33:08;2.92;;;1.20;;
11439;SDS011;5776;51.814;4.510;2023-07-29T13:35:34;4.50;;;1.00;;
11439;SDS011;5776;51.814;4.510;2023-07-29T13:38:01;3.85;;;1.33;;
11439;SDS011;5776;51.814;4.510;2023-07-29T13:40:27;1.92;;;0.90;;
11439;SDS011;5776;51.814;4.510;2023-07-29T13:42:53;2.60;;;1.00;;
11439;SDS011;5776;51.814;4.510;2023-07-29T13:45:20;3.80;;;0.93;;
11439;SDS011;5776;51.814;4.510;2023-07-29T13:47:46;4.85;;;0.90;;
11439;SDS011;5776;51.814;4.510;2023-07-29T13:50:13;1.65;;;0.80;;
11439;SDS011;5776;51.814;4.510;2023-07-29T13:52:39;3.55;;;1.30;;
11439;SDS011;5776;51.814;4.510;2023-07-29T13:55:05;2.35;;;1.02;;
11439;SDS011;5776;51.814;4.510;2023-07-29T13:57:32;2.10;;;0.95;;
11439;SDS011;5776;51.814;4.510;2023-07-29T13:59:58;2.10;;;0.93;;
11439;SDS011;5776;51.814;4.510;2023-07-29T14:02:25;3.05;;;1.00;;
11439;SDS011;5776;51.814;4.510;2023-07-29T14:04:56;1.33;;;0.93;;
11439;SDS011;5776;51.814;4.510;2023-07-29T14:07:22;3.15;;;1.38;;
11439;SDS011;5776;51.814;4.510;2023-07-29T14:09:48;2.95;;;1.17;;
11439;SDS011;5776;51.814;4.510;2023-07-29T14:12:14;2.15;;;1.13;;
11439;SDS011;5776;51.814;4.510;2023-07-29T14:14:42;2.65;;;1.58;;
11439;SDS011;5776;51.814;4.510;2023-07-29T14:17:08;2.20;;;1.10;;
11439;SDS011;5776;51.814;4.510;2023-07-29T14:19:39;4.20;;;1.00;;
11439;SDS011;5776;51.814;4.510;2023-07-29T14:24:40;1.48;;;0.90;;
11439;SDS011;5776;51.814;4.510;2023-07-29T14:27:05;4.22;;;0.80;;
11439;SDS011;5776;51.814;4.510;2023-07-29T14:29:31;2.72;;;1.00;;
11439;SDS011;5776;51.814;4.510;2023-07-29T14:31:57;1.70;;;1.00;;
11439;SDS011;5776;51.814;4.510;2023-07-29T14:34:23;2.35;;;1.00;;
11439;SDS011;5776;51.814;4.510;2023-07-29T14:36:49;2.88;;;0.93;;
11439;SDS011;5776;51.814;4.510;2023-07-29T14:39:15;1.60;;;1.00;;
11439;SDS011;5776;51.814;4.510;2023-07-29T14:41:41;1.48;;;0.70;;
11439;SDS011;5776;51.814;4.510;2023-07-29T14:44:07;2.40;;;1.00;;
11439;SDS011;5776;51.814;4.510;2023-07-29T14:46:33;3.08;;;1.10;;
11439;SDS011;5776;51.814;4.510;2023-07-29T14:48:59;3.20;;;1.15;;
11439;SDS011;5776;51.814;4.510;2023-07-29T14:51:25;1.60;;;1.20;;
11439;SDS011;5776;51.814;4.510;2023-07-29T14:53:51;2.70;;;1.45;;
11439;SDS011;5776;51.814;4.510;2023-07-29T14:56:17;2.58;;;1.33;;
11439;SDS011;5776;51.814;4.510;2023-07-29T14:58:43;4.43;;;1.67;;
11439;SDS011;5776;51.814;4.510;2023-07-29T15:01:10;3.13;;;1.60;;
11439;SDS011;5776;51.814;4.510;2023-07-29T15:03:36;3.22;;;2.15;;
11439;SDS011;5776;51.814;4.510;2023-07-29T15:06:01;4.38;;;2.40;;
11439;SDS011;5776;51.814;4.510;2023-07-29T15:08:28;4.10;;;2.05;;
11439;SDS011;5776;51.814;4.510;2023-07-29T15:10:54;2.72;;;1.95;;
11439;SDS011;5776;51.814;4.510;2023-07-29T15:13:20;3.10;;;2.03;;
11439;SDS011;5776;51.814;4.510;2023-07-29T15:15:46;2.45;;;1.65;;
11439;SDS011;5776;51.814;4.510;2023-07-29T15:18:15;3.05;;;2.00;;
11439;SDS011;5776;51.814;4.510;2023-07-29T15:20:41;4.18;;;1.73;;
11439;SDS011;5776;51.814;4.510;2023-07-29T15:23:08;2.38;;;1.70;;
11439;SDS011;5776;51.814;4.510;2023-07-29T15:25:35;4.38;;;1.55;;
11439;SDS011;5776;51.814;4.510;2023-07-29T15:28:00;2.83;;;1.50;;
11439;SDS011;5776;51.814;4.510;2023-07-29T15:30:27;6.00;;;1.65;;